Chulitna, Alaska
Current Conditions -  °F | °C
As of 1:53 PM on Saturday 20 Dec 2014 (Local Time) from PATK Reporting Station
Few Clouds Few Clouds  
Wind Chill: 22°   Ceiling: Unl
Heat Index: 27°   Visibility: 10mi
Dew Point: 14°   Wind: 5mph
Humidity: 58%   Direction: 10°N
Pressure: 28.9"   Gusts: NA
Location:  62.88°N, 149.83°W
Report Text: PATK 202253Z 01004KT 10SM FEW120 M03/M10 A2890 RMK AO2 SLP792 T10281100
Loading
Personal Weather Stations






























Interactive Weather Map New forecast layout! Learn more

10-Day Weather Forecast

Advertisements
Track Severe Weather on mobile